Time;durP1;ratioP1;P1;durP2;ratioP2;P2;SDS_P1;SDS_P2;PMS_P1;PMS_P2;Temp;Humidity;BMP_temperature;BMP_pressure;BME280_temperature;BME280_humidity;BME280_pressure;Samples;Min_cycle;Max_cycle;Signal;HPM_P1;HPM_P2
2021/03/27 00:00:56;;;;;;;20.45;12.95;;;;;;;;;;4956516;28;20050;-59
2021/03/27 00:03:27;;;;;;;21.05;13.80;;;;;;;;;;4956473;28;20022;-63
2021/03/27 00:06:03;;;;;;;21.75;16.45;;;;;;;;;;4956213;28;20535;-63
2021/03/27 00:08:37;;;;;;;19.65;12.75;;;;;;;;;;4973923;28;20037;-61
2021/03/27 00:11:09;;;;;;;21.60;14.95;;;;;;;;;;4270491;28;10000751;-58
2021/03/27 00:13:47;;;;;;;19.95;14.60;;;;;;;;;;4952945;28;20030;-59
2021/03/27 00:16:13;;;;;;;19.95;12.50;;;;;;;;;;4983558;28;20027;-59
2021/03/27 00:18:47;;;;;;;21.08;14.10;;;;;;;;;;4970186;28;20043;-60
2021/03/27 00:21:13;;;;;;;19.75;14.57;;;;;;;;;;4983402;28;20129;-60
2021/03/27 00:23:43;;;;;;;19.65;13.75;;;;;;;;;;4952727;28;20476;-61
2021/03/27 00:26:12;;;;;;;21.40;16.48;;;;;;;;;;4952675;28;20019;-60
2021/03/27 00:28:41;;;;;;;19.15;11.80;;;;;;;;;;4970303;28;20078;-61
2021/03/27 00:31:13;;;;;;;20.40;13.60;;;;;;;;;;4967606;28;20077;-61
2021/03/27 00:33:44;;;;;;;21.38;13.00;;;;;;;;;;4970473;28;20034;-61
2021/03/27 00:36:10;;;;;;;23.23;14.68;;;;;;;;;;4982963;28;20101;-58
2021/03/27 00:38:41;;;;;;;21.52;13.80;;;;;;;;;;4952922;28;20069;-61
2021/03/27 00:41:12;;;;;;;19.50;10.15;;;;;;;;;;4952834;28;20023;-60
2021/03/27 00:43:44;;;;;;;21.80;13.40;;;;;;;;;;4953458;28;20588;-61
2021/03/27 00:46:11;;;;;;;18.67;9.60;;;;;;;;;;4969833;28;20045;-59
2021/03/27 00:48:40;;;;;;;20.02;11.10;;;;;;;;;;4952736;28;20031;-60
2021/03/27 00:51:21;;;;;;;20.60;10.70;;;;;;;;;;4970222;28;20019;-59
2021/03/27 00:53:53;;;;;;;21.88;13.35;;;;;;;;;;4969828;28;20023;-58
2021/03/27 00:56:22;;;;;;;17.92;9.82;;;;;;;;;;4986435;28;20022;-59
2021/03/27 00:59:03;;;;;;;20.88;10.98;;;;;;;;;;4987487;28;20500;-61
2021/03/27 01:01:33;;;;;;;19.52;10.68;;;;;;;;;;4987927;28;20085;-62
2021/03/27 01:04:00;;;;;;;24.73;12.13;;;;;;;;;;4988701;28;20038;-61
2021/03/27 01:06:30;;;;;;;20.02;10.73;;;;;;;;;;4988602;28;20073;-60
2021/03/27 01:08:59;;;;;;;20.13;10.05;;;;;;;;;;4988893;28;20143;-61
2021/03/27 01:11:27;;;;;;;27.50;11.73;;;;;;;;;;4987868;28;20023;-62
2021/03/27 01:13:55;;;;;;;17.67;9.05;;;;;;;;;;4973092;28;20046;-59
2021/03/27 01:16:26;;;;;;;18.03;7.83;;;;;;;;;;4973163;28;20031;-58
2021/03/27 01:18:56;;;;;;;16.55;7.32;;;;;;;;;;4988059;28;20023;-62
2021/03/27 01:21:28;;;;;;;16.08;7.18;;;;;;;;;;4972747;28;20027;-62
2021/03/27 01:23:58;;;;;;;17.15;7.60;;;;;;;;;;4987466;28;20429;-57
2021/03/27 01:26:27;;;;;;;18.70;8.32;;;;;;;;;;4972959;28;20102;-58
2021/03/27 01:28:58;;;;;;;16.20;6.68;;;;;;;;;;4987753;28;20114;-60
2021/03/27 01:31:42;;;;;;;18.42;7.70;;;;;;;;;;4987604;28;20027;-59
2021/03/27 01:34:32;;;;;;;18.98;12.02;;;;;;;;;;4987558;28;20580;-60
2021/03/27 01:37:11;;;;;;;19.05;10.20;;;;;;;;;;4950207;28;20533;-56
2021/03/27 01:39:44;;;;;;;20.33;11.57;;;;;;;;;;4987551;28;20027;-62
2021/03/27 01:42:17;;;;;;;18.17;10.05;;;;;;;;;;4987745;28;20023;-61
2021/03/27 01:45:06;;;;;;;19.88;14.27;;;;;;;;;;4972421;28;20074;-61
2021/03/27 01:47:35;;;;;;;18.23;10.20;;;;;;;;;;4950338;28;20031;-62
2021/03/27 01:50:01;;;;;;;;;;;;;;;;;;4989281;28;20046;-60
2021/03/27 01:52:29;;;;;;;21.10;15.05;;;;;;;;;;4975885;28;20465;-62
2021/03/27 01:55:14;;;;;;;24.70;17.38;;;;;;;;;;4990918;28;20487;-62
2021/03/27 01:57:51;;;;;;;22.20;14.48;;;;;;;;;;4991370;28;20053;-62
2021/03/27 02:00:22;;;;;;;19.48;12.48;;;;;;;;;;4976133;28;20408;-63
2021/03/27 02:02:48;;;;;;;23.35;15.65;;;;;;;;;;4976053;28;20030;-62
2021/03/27 02:05:34;;;;;;;22.20;15.40;;;;;;;;;;4990579;28;20035;-63
2021/03/27 02:08:07;;;;;;;22.17;14.88;;;;;;;;;;4990920;28;20109;-62
2021/03/27 02:10:49;;;;;;;18.67;11.65;;;;;;;;;;4991057;28;20026;-56
2021/03/27 02:13:24;;;;;;;19.08;13.98;;;;;;;;;;4990512;28;20023;-62
2021/03/27 02:15:59;;;;;;;17.42;13.70;;;;;;;;;;4990615;28;20027;-60
2021/03/27 02:18:43;;;;;;;17.35;9.25;;;;;;;;;;4990425;28;20031;-61
2021/03/27 02:21:22;;;;;;;16.55;9.57;;;;;;;;;;4975606;28;20498;-58
2021/03/27 02:23:51;;;;;;;17.50;11.20;;;;;;;;;;4990079;28;20085;-61
2021/03/27 02:26:20;;;;;;;17.30;10.40;;;;;;;;;;4975418;28;20019;-59
2021/03/27 02:29:08;;;;;;;16.30;8.30;;;;;;;;;;4975302;28;20106;-62
2021/03/27 02:31:37;;;;;;;17.70;10.45;;;;;;;;;;4975225;28;20046;-61
2021/03/27 02:34:10;;;;;;;17.98;11.15;;;;;;;;;;4990075;28;20113;-60
2021/03/27 02:36:39;;;;;;;17.27;8.68;;;;;;;;;;4990332;28;20030;-60
2021/03/27 02:39:15;;;;;;;18.83;10.40;;;;;;;;;;4990273;28;20496;-61
2021/03/27 02:42:00;;;;;;;18.50;10.43;;;;;;;;;;4990207;28;20031;-59
2021/03/27 02:44:26;;;;;;;17.15;10.82;;;;;;;;;;4989929;28;20516;-59
2021/03/27 02:46:56;;;;;;;18.48;10.43;;;;;;;;;;4975259;28;20058;-62
2021/03/27 02:49:22;;;;;;;17.95;9.93;;;;;;;;;;4990032;28;20392;-61
2021/03/27 02:51:58;;;;;;;18.75;12.65;;;;;;;;;;4989878;28;20023;-59
2021/03/27 02:54:32;;;;;;;19.13;11.85;;;;;;;;;;4989783;28;20030;-61
2021/03/27 02:57:03;;;;;;;18.17;11.40;;;;;;;;;;4974992;28;20031;-61
2021/03/27 02:59:47;;;;;;;21.33;11.90;;;;;;;;;;4975303;28;20034;-61
2021/03/27 03:02:20;;;;;;;20.08;12.48;;;;;;;;;;5026337;23;20058;-65
2021/03/27 03:05:07;;;;;;;19.20;10.88;;;;;;;;;;5013785;28;20120;-66
2021/03/27 03:07:36;;;;;;;22.75;13.70;;;;;;;;;;4984740;28;20049;-65
2021/03/27 03:10:17;;;;;;;23.80;13.73;;;;;;;;;;5004399;28;20093;-66
2021/03/27 03:12:53;;;;;;;21.90;15.38;;;;;;;;;;4991420;28;20033;-65
2021/03/27 03:15:19;;;;;;;19.35;10.35;;;;;;;;;;4979859;28;20023;-65
2021/03/27 03:18:05;;;;;;;19.45;10.23;;;;;;;;;;5002914;28;20027;-66
2021/03/27 03:20:41;;;;;;;20.40;12.25;;;;;;;;;;4986580;28;20045;-64
2021/03/27 03:23:12;;;;;;;22.25;15.15;;;;;;;;;;4991425;28;20495;-64
2021/03/27 03:25:51;;;;;;;20.90;10.38;;;;;;;;;;4992429;28;20037;-63
2021/03/27 03:28:17;;;;;;;;;;;;;;;;;;4993021;28;20097;-64
2021/03/27 03:30:43;;;;;;;22.92;13.77;;;;;;;;;;5006717;28;19957;-64
2021/03/27 03:33:24;;;;;;;22.42;13.52;;;;;;;;;;4991397;28;20097;-63
2021/03/27 03:35:55;;;;;;;22.05;11.93;;;;;;;;;;4990646;28;20074;-64
2021/03/27 03:38:34;;;;;;;24.48;14.50;;;;;;;;;;4992268;28;20026;-64
2021/03/27 03:40:59;;;;;;;;;;;;;;;;;;4991499;28;20022;-63
2021/03/27 03:43:33;;;;;;;26.00;13.02;;;;;;;;;;4992503;28;19913;-62
2021/03/27 03:45:59;;;;;;;25.08;14.55;;;;;;;;;;4992024;28;20023;-64
2021/03/27 03:48:41;;;;;;;27.42;15.07;;;;;;;;;;4991250;28;20066;-63
2021/03/27 03:51:29;;;;;;;21.40;13.65;;;;;;;;;;4992587;28;20069;-64
2021/03/27 03:54:11;;;;;;;22.55;14.43;;;;;;;;;;4991073;28;20054;-64
2021/03/27 03:56:49;;;;;;;25.52;14.13;;;;;;;;;;4990717;28;20034;-63
2021/03/27 03:59:27;;;;;;;24.13;14.45;;;;;;;;;;4990712;28;20022;-63
2021/03/27 04:02:13;;;;;;;25.17;14.40;;;;;;;;;;4991821;28;20031;-64
2021/03/27 04:04:44;;;;;;;24.08;14.48;;;;;;;;;;4990363;28;20050;-64
2021/03/27 04:07:13;;;;;;;24.67;16.27;;;;;;;;;;4990832;28;20526;-64
2021/03/27 04:09:46;;;;;;;25.08;13.15;;;;;;;;;;4990502;28;20022;-64
2021/03/27 04:12:20;;;;;;;19.73;12.43;;;;;;;;;;4989763;28;20545;-63
2021/03/27 04:14:57;;;;;;;21.33;13.73;;;;;;;;;;4990655;28;20518;-63
2021/03/27 04:17:31;;;;;;;19.58;11.80;;;;;;;;;;4990550;28;20054;-62
2021/03/27 04:20:03;;;;;;;22.23;14.52;;;;;;;;;;4990551;28;20026;-64
2021/03/27 04:22:38;;;;;;;20.60;11.70;;;;;;;;;;4992030;28;20144;-63
2021/03/27 04:25:13;;;;;;;19.88;11.13;;;;;;;;;;4991473;28;20030;-63
2021/03/27 04:27:51;;;;;;;20.98;11.63;;;;;;;;;;4990392;28;20026;-63
2021/03/27 04:30:23;;;;;;;23.10;11.70;;;;;;;;;;4991804;28;20429;-61
2021/03/27 04:33:09;;;;;;;20.65;11.18;;;;;;;;;;4991766;28;20037;-63
2021/03/27 04:35:51;;;;;;;21.77;8.70;;;;;;;;;;4991446;28;20052;-62
2021/03/27 04:38:23;;;;;;;24.65;10.10;;;;;;;;;;5006947;28;20030;-64
2021/03/27 04:41:08;;;;;;;21.42;11.80;;;;;;;;;;4991387;28;20097;-62
2021/03/27 04:43:37;;;;;;;23.90;11.40;;;;;;;;;;4989750;28;20065;-63
2021/03/27 04:46:13;;;;;;;22.02;10.55;;;;;;;;;;4990073;28;20026;-61
2021/03/27 04:48:45;;;;;;;21.67;13.13;;;;;;;;;;4991088;28;20551;-63
2021/03/27 04:51:20;;;;;;;17.83;9.73;;;;;;;;;;4991067;28;20472;-64
2021/03/27 04:53:50;;;;;;;18.23;10.60;;;;;;;;;;4991082;28;20395;-63
2021/03/27 04:56:30;;;;;;;21.90;11.15;;;;;;;;;;4990007;28;20014;-63
2021/03/27 04:59:14;;;;;;;20.58;10.88;;;;;;;;;;4991415;28;20093;-63
2021/03/27 05:01:59;;;;;;;22.92;12.38;;;;;;;;;;4990346;28;20039;-64
2021/03/27 05:04:44;;;;;;;22.08;11.52;;;;;;;;;;4990051;28;20030;-63
2021/03/27 05:07:21;;;;;;;19.23;10.68;;;;;;;;;;4989938;28;20165;-63
2021/03/27 05:09:49;;;;;;;19.73;11.40;;;;;;;;;;4989998;28;20030;-63
2021/03/27 05:12:27;;;;;;;21.83;12.30;;;;;;;;;;4989735;28;20019;-62
2021/03/27 05:15:07;;;;;;;22.75;13.05;;;;;;;;;;4991115;28;20473;-63
2021/03/27 05:17:42;;;;;;;21.85;11.05;;;;;;;;;;4991248;28;20120;-62
2021/03/27 05:20:27;;;;;;;22.20;11.52;;;;;;;;;;4991336;28;20034;-62
2021/03/27 05:22:58;;;;;;;20.25;10.85;;;;;;;;;;4991513;28;20034;-63
2021/03/27 05:25:27;;;;;;;19.92;11.45;;;;;;;;;;4993529;28;20035;-62
2021/03/27 05:28:09;;;;;;;22.02;13.95;;;;;;;;;;4994998;28;20387;-63
2021/03/27 05:30:41;;;;;;;24.52;11.05;;;;;;;;;;4993475;28;21298;-63
2021/03/27 05:33:07;;;;;;;18.42;10.13;;;;;;;;;;4994787;28;20094;-63
2021/03/27 05:35:33;;;;;;;32.38;12.48;;;;;;;;;;4993296;28;20094;-64
2021/03/27 05:38:05;;;;;;;22.52;12.20;;;;;;;;;;4994714;28;20034;-65
2021/03/27 05:40:37;;;;;;;19.95;12.60;;;;;;;;;;4994605;28;20448;-63
2021/03/27 05:43:18;;;;;;;24.55;9.52;;;;;;;;;;4994267;28;20092;-62
2021/03/27 05:46:03;;;;;;;19.00;10.45;;;;;;;;;;4994056;28;20030;-64
2021/03/27 05:48:29;;;;;;;22.45;11.02;;;;;;;;;;4994566;28;20505;-63
2021/03/27 05:51:14;;;;;;;24.90;10.55;;;;;;;;;;4993157;28;20019;-64
2021/03/27 05:54:03;;;;;;;21.15;11.30;;;;;;;;;;4994216;28;20053;-62
2021/03/27 05:56:39;;;;;;;17.85;8.75;;;;;;;;;;4994356;28;20046;-61
2021/03/27 05:59:14;;;;;;;18.75;8.68;;;;;;;;;;4994469;28;20030;-62
2021/03/27 06:01:56;;;;;;;22.50;9.55;;;;;;;;;;4994035;28;20518;-64
2021/03/27 06:04:40;;;;;;;19.30;9.98;;;;;;;;;;4993993;28;20049;-64
2021/03/27 06:07:06;;;;;;;18.95;7.70;;;;;;;;;;5009090;28;20080;-63
2021/03/27 06:09:58;;;;;;;20.02;8.98;;;;;;;;;;5008994;28;20034;-63
2021/03/27 06:12:43;;;;;;;25.83;10.85;;;;;;;;;;4992240;28;20026;-62
2021/03/27 06:15:15;;;;;;;22.58;10.15;;;;;;;;;;4992535;28;20104;-63
2021/03/27 06:18:07;;;;;;;19.90;11.27;;;;;;;;;;4990961;28;20026;-60
2021/03/27 06:20:44;;;;;;;17.10;7.80;;;;;;;;;;4969306;28;20034;-63
2021/03/27 06:23:19;;;;;;;20.48;9.50;;;;;;;;;;4955020;28;20158;-63
2021/03/27 06:25:56;;;;;;;21.52;9.57;;;;;;;;;;4953688;29;20042;-64
2021/03/27 06:28:38;;;;;;;24.15;11.60;;;;;;;;;;4954008;29;20027;-65
2021/03/27 06:31:23;;;;;;;18.02;8.80;;;;;;;;;;4955259;28;20031;-64
2021/03/27 06:33:58;;;;;;;16.55;7.10;;;;;;;;;;4954677;29;20358;-63
2021/03/27 06:36:47;;;;;;;20.70;9.60;;;;;;;;;;4954452;28;20027;-63
2021/03/27 06:39:13;;;;;;;20.58;8.70;;;;;;;;;;4955080;28;20020;-64
2021/03/27 06:42:03;;;;;;;16.15;6.70;;;;;;;;;;4954677;28;20027;-63
2021/03/27 06:44:38;;;;;;;20.25;9.27;;;;;;;;;;4954512;29;20086;-63
2021/03/27 06:47:17;;;;;;;14.73;6.43;;;;;;;;;;4954589;29;20103;-63
2021/03/27 06:49:43;;;;;;;14.35;5.55;;;;;;;;;;4953851;28;20030;-62
2021/03/27 06:52:09;;;;;;;15.90;5.85;;;;;;;;;;4953219;28;20027;-62
2021/03/27 06:54:38;;;;;;;15.50;5.60;;;;;;;;;;4969967;28;20037;-63
2021/03/27 06:57:16;;;;;;;16.25;7.22;;;;;;;;;;4988213;28;20026;-65
2021/03/27 06:59:45;;;;;;;16.60;5.65;;;;;;;;;;4988374;28;20023;-64
2021/03/27 07:02:28;;;;;;;17.55;5.68;;;;;;;;;;4988156;28;20071;-63
2021/03/27 07:05:08;;;;;;;16.95;7.53;;;;;;;;;;4972958;28;20031;-63
2021/03/27 07:07:49;;;;;;;15.32;5.28;;;;;;;;;;4973594;28;20027;-62
2021/03/27 07:10:33;;;;;;;19.13;8.00;;;;;;;;;;4988792;28;20425;-62
2021/03/27 07:13:12;;;;;;;16.67;6.07;;;;;;;;;;4989134;28;20121;-63
2021/03/27 07:15:46;;;;;;;14.98;6.57;;;;;;;;;;4988607;28;20562;-63
2021/03/27 07:18:31;;;;;;;14.52;6.15;;;;;;;;;;4973041;28;20502;-63
2021/03/27 07:21:26;;;;;;;15.98;7.20;;;;;;;;;;4973346;28;20373;-62
2021/03/27 07:24:08;;;;;;;20.13;7.50;;;;;;;;;;4971848;28;20023;-60
2021/03/27 07:26:37;;;;;;;16.55;6.85;;;;;;;;;;4973487;28;20050;-63
2021/03/27 07:29:31;;;;;;;19.48;6.82;;;;;;;;;;4991637;28;20031;-62
2021/03/27 07:32:16;;;;;;;18.38;6.57;;;;;;;;;;4988218;28;20078;-63
2021/03/27 07:34:44;;;;;;;16.02;5.80;;;;;;;;;;4972330;28;20049;-61
2021/03/27 07:37:19;;;;;;;17.48;6.00;;;;;;;;;;4956530;28;20027;-62
2021/03/27 07:40:05;;;;;;;13.43;6.43;;;;;;;;;;4968377;28;20051;-64
2021/03/27 07:42:44;;;;;;;18.35;12.25;;;;;;;;;;4968567;28;20121;-65
2021/03/27 07:45:20;;;;;;;14.93;8.45;;;;;;;;;;4953988;28;20089;-64
2021/03/27 07:48:07;;;;;;;17.77;9.60;;;;;;;;;;4968527;28;20485;-66
2021/03/27 07:50:42;;;;;;;19.15;8.02;;;;;;;;;;4990112;28;20042;-65
2021/03/27 07:53:26;;;;;;;16.83;8.27;;;;;;;;;;4987977;28;20027;-66
2021/03/27 07:56:11;;;;;;;14.13;7.43;;;;;;;;;;4973167;28;20034;-65
2021/03/27 07:58:37;;;;;;;17.25;6.07;;;;;;;;;;4987939;28;20038;-66
2021/03/27 08:01:22;;;;;;;12.55;6.55;;;;;;;;;;4987997;28;20038;-67
2021/03/27 08:04:04;;;;;;;10.77;4.30;;;;;;;;;;4986624;28;20531;-66
2021/03/27 08:06:54;;;;;;;10.25;4.65;;;;;;;;;;4972612;28;20060;-66
2021/03/27 08:09:35;;;;;;;13.57;5.85;;;;;;;;;;5001148;28;20076;-66
2021/03/27 08:12:01;;;;;;;11.73;4.75;;;;;;;;;;4987582;28;20386;-65
2021/03/27 08:14:56;;;;;;;11.25;4.60;;;;;;;;;;4986967;28;20116;-64
2021/03/27 08:17:28;;;;;;;11.82;4.30;;;;;;;;;;4987475;28;20026;-64
2021/03/27 08:19:54;;;;;;;13.13;4.47;;;;;;;;;;4987189;28;20077;-65
2021/03/27 08:22:39;;;;;;;12.73;3.42;;;;;;;;;;4987261;28;20469;-65
2021/03/27 08:25:20;;;;;;;10.45;4.07;;;;;;;;;;4971969;28;20031;-65
2021/03/27 08:28:25;;;;;;;14.35;5.13;;;19.20;68.50;;;;;;4987247;28;20608;-65
2021/03/27 08:31:13;;;;;;;15.32;3.55;;;3.20;99.90;;;;;;4981458;28;20038;-64
2021/03/27 08:34:11;;;;;;;10.57;3.75;;;2.90;99.90;;;;;;4986333;28;20026;-65
2021/03/27 08:36:52;;;;;;;12.88;3.70;;;;;;;;;;4971952;28;20035;-64
2021/03/27 08:39:37;;;;;;;13.15;3.60;;;;;;;;;;4987016;28;20076;-65
2021/03/27 08:42:13;;;;;;;10.45;3.28;;;;;;;;;;4972010;28;20583;-64
2021/03/27 08:44:48;;;;;;;9.88;3.30;;;;;;;;;;4972011;28;20069;-65
2021/03/27 08:47:19;;;;;;;6.97;2.50;;;;;;;;;;4986154;28;20081;-65
2021/03/27 08:50:08;;;;;;;14.98;4.05;;;;;;;;;;4971926;28;20046;-65
2021/03/27 08:52:40;;;;;;;9.68;2.95;;;;;;;;;;4986506;28;20070;-65
2021/03/27 08:55:19;;;;;;;8.30;2.88;;;;;;;;;;4969243;28;20030;-66
2021/03/27 08:57:57;;;;;;;10.82;3.25;;;;;;;;;;4971554;28;20031;-65
2021/03/27 09:00:37;;;;;;;13.18;3.40;;;;;;;;;;4975198;28;20484;-65
2021/03/27 09:03:20;;;;;;;11.68;3.20;;;;;;;;;;5025182;23;20047;-65
2021/03/27 09:05:52;;;;;;;13.55;4.03;;;;;;;;;;5025459;28;20038;-63
2021/03/27 09:08:21;;;;;;;12.00;3.53;;;;;;;;;;5025863;28;20021;-63
2021/03/27 09:11:00;;;;;;;13.25;4.50;;;;;;;;;;5021534;28;20635;-63
2021/03/27 09:13:39;;;;;;;12.10;3.67;;;;;;;;;;5020844;28;20079;-63
2021/03/27 09:16:24;;;;;;;15.48;4.18;;;;;;;;;;5034563;28;20025;-64
2021/03/27 09:18:57;;;;;;;14.85;5.05;;;;;;;;;;5034197;28;20030;-64
2021/03/27 09:21:31;;;;;;;16.48;4.20;;;;;;;;;;5034642;28;20025;-64
2021/03/27 09:24:16;;;;;;;15.25;4.20;;;;;;;;;;5035589;28;20029;-61
2021/03/27 09:26:42;;;;;;;16.55;4.95;;;;;;;;;;5034576;28;20040;-63
2021/03/27 09:29:11;;;;;;;14.43;3.78;;;;;;;;;;5035919;28;20116;-63
2021/03/27 09:31:52;;;;;;;13.13;3.90;;;;;;;;;;5035955;28;20025;-63
2021/03/27 09:34:21;;;;;;;15.43;4.32;;;;;;;;;;5034697;28;20025;-64
2021/03/27 09:36:56;;;;;;;15.02;5.72;;;;;;;;;;5035081;28;20034;-62
2021/03/27 09:39:30;;;;;;;15.98;4.35;;;;;;;;;;5034042;28;20028;-63
2021/03/27 09:42:17;;;;;;;18.67;5.47;;;;;;;;;;5034239;28;20124;-64
2021/03/27 09:45:10;;;;;;;19.98;5.13;;;;;;;;;;5033107;28;20063;-65
2021/03/27 09:47:48;;;;;;;18.35;4.35;;;;;;;;;;5034783;28;20017;-65
2021/03/27 09:50:21;;;;;;;16.83;5.75;;;;;;;;;;5016806;28;20025;-65
2021/03/27 09:52:53;;;;;;;16.08;6.93;;;;;;;;;;5014307;28;20034;-64
2021/03/27 09:55:39;;;;;;;16.88;5.90;;;;;;;;;;5013658;28;20029;-64
2021/03/27 09:58:05;;;;;;;19.42;6.28;;;;;;;;;;5015265;28;20394;-65
2021/03/27 10:00:50;;;;;;;21.13;5.93;;;;;;;;;;5015354;28;20033;-65
2021/03/27 10:03:16;;;;;;;18.50;6.13;;;;;;;;;;4994408;28;20114;-65
2021/03/27 10:05:48;;;;;;;18.15;6.18;;;;;;;;;;4994572;28;20125;-65
2021/03/27 10:08:30;;;;;;;22.08;5.35;;;;;;;;;;4994899;28;20039;-66
2021/03/27 10:10:56;;;;;;;16.73;5.38;;;;;;;;;;4994454;28;20022;-65
2021/03/27 10:13:41;;;;;;;16.63;4.93;;;;;;;;;;4995460;28;20025;-65
2021/03/27 10:16:19;;;;;;;22.83;8.13;;;;;;;;;;4993848;28;20543;-65
2021/03/27 10:19:00;;;;;;;17.60;5.78;;;;;;;;;;4994405;28;20492;-66
2021/03/27 10:21:31;;;;;;;13.38;4.70;;;;;;;;;;5000574;28;20076;-66
2021/03/27 10:24:03;;;;;;;17.15;6.35;;;;;;;;;;5014583;28;20022;-67
2021/03/27 10:26:35;;;;;;;17.95;5.38;;;;;;;;;;5013991;28;20414;-65
2021/03/27 10:29:07;;;;;;;13.05;5.05;;;;;;;;;;5013687;28;20499;-66
2021/03/27 10:31:52;;;;;;;13.50;4.80;;;;;;;;;;5013035;28;20129;-65
2021/03/27 10:34:31;;;;;;;15.73;5.85;;;;;;;;;;5012898;28;20029;-67
2021/03/27 10:37:13;;;;;;;14.45;4.10;;;;;;;;;;5013588;28;20023;-68
2021/03/27 10:39:54;;;;;;;13.73;4.88;;;;;;;;;;5013025;28;20458;-65
2021/03/27 10:42:40;;;;;;;12.68;5.22;;;;;;;;;;5013211;28;20418;-65
2021/03/27 10:45:09;;;;;;;10.68;3.50;;;;;;;;;;5012864;28;20029;-65
2021/03/27 10:47:59;;;;;;;12.98;4.10;;;;;;;;;;5011189;28;20022;-65
2021/03/27 10:50:32;;;;;;;13.35;5.20;;;;;;;;;;4988179;28;20038;-67
2021/03/27 10:53:10;;;;;;;11.65;4.10;;;;;;;;;;5014378;28;20026;-67
2021/03/27 10:55:36;;;;;;;;;;;;;;;;;;5013635;28;20030;-67
2021/03/27 10:58:08;;;;;;;12.65;4.10;;;;;;;;;;5030741;28;19996;-68
2021/03/27 11:00:53;;;;;;;14.95;6.13;;;;;;;;;;5013273;28;20030;-67
2021/03/27 11:03:39;;;;;;;14.50;4.10;;;;;;;;;;5012863;28;20061;-63
2021/03/27 11:06:08;;;;;;;10.07;3.45;;;;;;;;;;5013310;28;20049;-62
2021/03/27 11:09:12;;;;;;;14.68;5.10;;;3.00;99.90;;;;;;5012418;28;20484;-62
2021/03/27 11:12:16;;;;;;;13.05;4.53;;;6.60;99.90;;;;;;5012603;28;20487;-64
2021/03/27 11:14:48;;;;;;;16.90;5.82;;;;;;;;;;4995055;28;20113;-67
2021/03/27 11:17:19;;;;;;;13.82;5.82;;;;;;;;;;5013142;28;20117;-65
2021/03/27 11:20:03;;;;;;;14.35;7.43;;;;;;;;;;5014352;28;20544;-64
2021/03/27 11:22:56;;;;;;;20.77;8.98;;;;;;;;;;5012494;28;20025;-65
2021/03/27 11:25:31;;;;;;;14.98;8.80;;;;;;;;;;4990012;28;20072;-67
2021/03/27 11:28:15;;;;;;;17.73;8.50;;;5.90;99.90;;;;;;5012592;28;20056;-66
2021/03/27 11:31:11;;;;;;;17.90;10.45;;;6.70;99.90;;;;;;5013666;28;20026;-66
2021/03/27 11:34:04;;;;;;;18.90;10.20;;;6.70;99.90;;;;;;5012196;28;20407;-67
2021/03/27 11:36:50;;;;;;;19.40;12.65;;;6.60;99.90;;;;;;5013719;28;20391;-65
2021/03/27 11:39:41;;;;;;;16.63;9.10;;;6.80;99.90;;;;;;5011945;28;20438;-65
2021/03/27 11:42:42;;;;;;;17.55;9.65;;;7.10;99.90;;;;;;5012189;28;20479;-62
2021/03/27 11:45:10;;;;;;;16.58;10.98;;;6.80;99.90;;;;;;5011736;28;20093;-62
2021/03/27 11:47:40;;;;;;;18.27;8.77;;;6.50;99.90;;;;;;5011606;28;20064;-66
2021/03/27 11:50:25;;;;;;;18.40;9.90;;;;;;;;;;5011774;28;20395;-67
2021/03/27 11:53:03;;;;;;;16.65;9.25;;;;;;;;;;5013241;28;20092;-67
2021/03/27 11:55:33;;;;;;;19.40;9.93;;;;;;;;;;5013963;28;20515;-57
2021/03/27 11:58:18;;;;;;;17.88;9.25;;;;;;;;;;5013719;28;20069;-65
2021/03/27 12:00:48;;;;;;;17.15;7.85;;;;;;;;;;5005874;28;20037;-65
2021/03/27 12:03:17;;;;;;;15.77;6.93;;;;;;;;;;5012017;28;20057;-65
2021/03/27 12:05:43;;;;;;;16.20;7.90;;;;;;;;;;5011873;28;20049;-66
2021/03/27 12:08:25;;;;;;;15.52;7.00;;;;;;;;;;5011975;28;20022;-66
2021/03/27 12:10:51;;;;;;;15.63;7.15;;;;;;;;;;5012956;28;20028;-61
2021/03/27 12:13:20;;;;;;;16.17;7.63;;;;;;;;;;5011808;28;20034;-65
2021/03/27 12:15:53;;;;;;;18.83;8.18;;;;;;;;;;5011360;28;20023;-62
2021/03/27 12:18:38;;;;;;;15.13;7.45;;;;;;;;;;5015399;28;20026;-66
2021/03/27 12:21:06;;;;;;;17.83;8.70;;;;;;;;;;5025997;28;20030;-65
2021/03/27 12:23:32;;;;;;;15.95;8.95;;;;;;;;;;5011579;28;20095;-66
2021/03/27 12:26:11;;;;;;;20.50;9.48;;;;;;;;;;5011577;28;20030;-62
2021/03/27 12:28:47;;;;;;;20.38;9.30;;;;;;;;;;5012281;28;20506;-65
2021/03/27 12:31:30;;;;;;;18.50;8.70;;;;;;;;;;5013199;28;20646;-67
2021/03/27 12:34:35;;;;;;;19.63;8.15;;;;;;;;;;5010474;28;20071;-67
2021/03/27 12:37:19;;;;;;;15.27;7.32;;;;;;;;;;4971868;28;20088;-67
2021/03/27 12:39:53;;;;;;;18.95;8.15;;;;;;;;;;4955965;28;20026;-66
2021/03/27 12:42:19;;;;;;;16.20;7.10;;;;;;;;;;4991122;28;20410;-67
2021/03/27 12:44:51;;;;;;;16.23;7.75;;;;;;;;;;5012206;28;20076;-67
2021/03/27 12:47:23;;;;;;;21.27;7.88;;;;;;;;;;5015069;28;20032;-66
2021/03/27 12:49:49;;;;;;;18.17;8.10;;;;;;;;;;5014172;28;20113;-67
2021/03/27 12:52:23;;;;;;;18.23;8.05;;;;;;;;;;4666304;28;10000047;-67
2021/03/27 12:55:00;;;;;;;21.95;8.38;;;;;;;;;;5010573;28;20057;-66
2021/03/27 12:57:42;;;;;;;17.88;8.38;;;;;;;;;;5010261;28;20033;-68
2021/03/27 13:00:27;;;;;;;21.15;8.25;;;;;;;;;;5010622;28;20030;-66
2021/03/27 13:02:53;;;;;;;19.50;8.57;;;;;;;;;;4664580;28;10000484;-66
2021/03/27 13:05:36;;;;;;;18.20;8.23;;;;;;;;;;5009112;28;20577;-65
2021/03/27 13:08:08;;;;;;;20.15;8.70;;;;;;;;;;5010685;28;20438;-66
2021/03/27 13:10:46;;;;;;;18.65;8.23;;;;;;;;;;5010744;28;20109;-65
2021/03/27 13:13:18;;;;;;;14.52;8.80;;;;;;;;;;5011323;28;20116;-64
2021/03/27 13:15:50;;;;;;;15.27;10.05;;;;;;;;;;5010420;28;20033;-64
2021/03/27 13:18:42;;;;;;;19.52;12.45;;;;;;;;;;5011277;28;20048;-63
2021/03/27 13:21:09;;;;;;;16.33;11.23;;;;;;;;;;4996225;28;20052;-64
2021/03/27 13:23:44;;;;;;;19.38;12.98;;;;;;;;;;5011792;28;20129;-65
2021/03/27 13:26:15;;;;;;;22.63;12.65;;;;;;;;;;5010467;28;20026;-64
2021/03/27 13:28:52;;;;;;;17.83;12.38;;;;;;;;;;5010272;28;20096;-63
2021/03/27 13:31:20;;;;;;;15.98;10.05;;;;;;;;;;5010190;28;20108;-64
2021/03/27 13:33:54;;;;;;;18.02;8.73;;;;;;;;;;5009736;28;20025;-62
2021/03/27 13:36:32;;;;;;;15.27;7.88;;;;;;;;;;5011938;28;20080;-64
2021/03/27 13:39:10;;;;;;;16.95;9.32;;;;;;;;;;5011678;28;20032;-64
2021/03/27 13:41:36;;;;;;;14.93;6.50;;;;;;;;;;5010768;28;20026;-63
2021/03/27 13:44:05;;;;;;;15.52;7.80;;;;;;;;;;5010882;28;20034;-63
2021/03/27 13:46:50;;;;;;;13.50;5.85;;;;;;;;;;5015072;28;20446;-62
2021/03/27 13:49:29;;;;;;;14.82;7.80;;;;;;;;;;5015458;28;20026;-62
2021/03/27 13:51:55;;;;;;;;;;;;;;;;;;5014338;28;20490;-63
2021/03/27 13:54:23;;;;;;;18.58;7.75;;;;;;;;;;5014969;28;19910;-65
2021/03/27 13:57:08;;;;;;;16.38;7.50;;;;;;;;;;5013946;28;20022;-63
2021/03/27 13:59:34;;;;;;;17.08;7.50;;;;;;;;;;5013507;28;20029;-65
2021/03/27 14:02:21;;;;;;;16.20;8.38;;;6.40;99.90;;;;;;5013949;28;20117;-65
2021/03/27 14:04:50;;;;;;;16.47;7.87;;;;;;;;;;4668176;28;10000591;-62
2021/03/27 14:07:25;;;;;;;15.63;6.40;;;;;;;;;;5014300;28;20065;-64
2021/03/27 14:10:03;;;;;;;15.25;6.05;;;;;;;;;;5011118;28;20041;-64
2021/03/27 14:12:35;;;;;;;15.13;6.45;;;;;;;;;;5010353;28;20125;-64
2021/03/27 14:15:04;;;;;;;12.30;5.80;;;;;;;;;;5009933;28;20232;-63
2021/03/27 14:18:05;;;;;;;14.90;6.43;;;;;;;;;;5011902;28;20022;-64
2021/03/27 14:20:45;;;;;;;14.25;6.90;;;;;;;;;;4973094;28;20027;-64
2021/03/27 14:23:25;;;;;;;18.60;7.50;;;;;;;;;;5016398;28;20022;-65
2021/03/27 14:26:11;;;;;;;20.80;7.55;;;;;;;;;;5003926;28;20037;-65
2021/03/27 14:28:40;;;;;;;14.85;7.13;;;;;;;;;;5012186;28;20028;-63
2021/03/27 14:31:06;;;;;;;16.10;6.97;;;;;;;;;;5025079;28;20018;-65
2021/03/27 14:33:42;;;;;;;15.80;6.93;;;;;;;;;;5010776;28;20032;-64
2021/03/27 14:36:16;;;;;;;17.33;6.50;;;;;;;;;;5007410;28;20030;-65
2021/03/27 14:38:48;;;;;;;17.08;6.55;;;;;;;;;;5017506;28;20052;-64
2021/03/27 14:41:17;;;;;;;17.20;6.38;;;;;;;;;;5012287;28;20041;-64
2021/03/27 14:43:46;;;;;;;15.13;6.65;;;;;;;;;;5012487;28;20442;-64
2021/03/27 14:46:18;;;;;;;16.67;6.40;;;;;;;;;;5013349;28;20034;-63
2021/03/27 14:48:52;;;;;;;15.63;6.85;;;;;;;;;;5014405;28;20471;-62
2021/03/27 14:51:37;;;;;;;15.20;6.38;;;;;;;;;;5014474;28;20072;-64
2021/03/27 14:54:21;;;;;;;17.25;7.35;;;;;;;;;;5012922;28;20666;-64
2021/03/27 14:57:01;;;;;;;15.90;6.75;;;;;;;;;;5012477;28;20506;-65
2021/03/27 14:59:31;;;;;;;16.17;7.28;;;;;;;;;;5013698;28;20547;-63
2021/03/27 15:02:09;;;;;;;18.77;6.82;;;;;;;;;;5012641;28;20124;-62
2021/03/27 15:04:50;;;;;;;16.95;6.32;;;;;;;;;;5036128;23;21141;-67
2021/03/27 15:07:21;;;;;;;17.80;7.13;;;;;;;;;;4992050;28;20046;-67
2021/03/27 15:09:47;;;;;;;17.20;8.15;;;;;;;;;;4993247;28;20031;-67
2021/03/27 15:12:28;;;;;;;16.33;8.30;;;;;;;;;;4993855;28;20105;-67
2021/03/27 15:14:56;;;;;;;21.42;9.63;;;;;;;;;;4992759;28;20471;-68